Time;durP1;ratioP1;P1;durP2;ratioP2;P2;SDS_P1;SDS_P2;PMS_P1;PMS_P2;Temp;Humidity;BMP_temperature;BMP_pressure;BME280_temperature;BME280_humidity;BME280_pressure;Samples;Min_cycle;Max_cycle;Signal;HPM_P1;HPM_P2
2021/12/23 00:01:41;;;;;;;3.97;2.53;;;3.70;38.30;;;;;;5094900;28;20171;-49
2021/12/23 00:04:12;;;;;;;5.03;2.97;;;3.70;38.30;;;;;;5094652;28;20609;-50
2021/12/23 00:06:40;;;;;;;6.85;3.10;;;3.60;38.30;;;;;;5062100;28;20179;-50
2021/12/23 00:09:08;;;;;;;10.38;4.60;;;3.60;38.30;;;;;;5077634;28;20179;-50
2021/12/23 00:11:36;;;;;;;13.07;4.25;;;3.60;38.80;;;;;;5094721;28;20232;-50
2021/12/23 00:14:07;;;;;;;9.88;4.40;;;3.60;38.20;;;;;;5095363;28;20160;-50
2021/12/23 00:19:35;;;;;;;5.75;3.63;;;3.60;38.10;;;;;;5095301;28;20183;-49
2021/12/23 00:24:50;;;;;;;4.38;3.05;;;3.60;38.10;;;;;;5094499;28;20170;-50
2021/12/23 00:27:18;;;;;;;4.35;2.75;;;3.50;38.10;;;;;;5094599;28;20233;-50
2021/12/23 00:29:45;;;;;;;6.05;2.17;;;3.60;38.10;;;;;;5095148;28;20548;-49
2021/12/23 00:32:13;;;;;;;4.63;3.15;;;3.50;38.20;;;;;;5095232;28;20196;-49
2021/12/23 00:34:41;;;;;;;8.52;3.92;;;3.50;38.20;;;;;;5095068;28;20549;-49
2021/12/23 00:37:10;;;;;;;6.05;4.85;;;3.50;38.30;;;;;;5094422;28;20164;-49
2021/12/23 00:39:38;;;;;;;4.40;3.97;;;3.50;38.20;;;;;;5093750;28;20614;-49
2021/12/23 00:42:08;;;;;;;6.72;4.28;;;3.50;38.10;;;;;;5094111;28;20224;-50
2021/12/23 00:44:45;;;;;;;4.63;2.83;;;3.50;38.10;;;;;;5095085;28;20565;-50
2021/12/23 00:47:13;;;;;;;6.40;3.03;;;3.50;38.10;;;;;;5095096;28;20599;-49
2021/12/23 00:49:40;;;;;;;4.00;2.97;;;3.50;38.00;;;;;;5094917;28;20567;-50
2021/12/23 00:52:08;;;;;;;5.18;2.42;;;3.50;38.00;;;;;;5093770;28;20202;-49
2021/12/23 00:54:36;;;;;;;10.07;4.30;;;3.50;38.00;;;;;;5094766;28;20187;-50
2021/12/23 00:57:04;;;;;;;6.30;3.40;;;3.50;38.00;;;;;;5094817;28;20168;-49
2021/12/23 00:59:31;;;;;;;5.60;2.35;;;3.50;38.00;;;;;;5094974;28;20205;-49
2021/12/23 01:01:58;;;;;;;5.57;4.90;;;3.40;38.10;;;;;;5094995;28;20546;-50
2021/12/23 01:04:26;;;;;;;4.75;3.15;;;3.30;38.20;;;;;;5077294;28;20164;-49
2021/12/23 01:06:53;;;;;;;6.93;3.17;;;3.30;38.20;;;;;;5093921;28;20174;-49
2021/12/23 01:09:21;;;;;;;6.22;3.28;;;3.40;38.20;;;;;;5094970;28;20489;-49
2021/12/23 01:11:49;;;;;;;11.25;3.47;;;3.40;38.20;;;;;;5095040;28;20172;-49
2021/12/23 01:17:00;;;;;;;4.82;3.22;;;3.30;38.40;;;;;;5094897;28;20265;-50
2021/12/23 01:19:36;;;;;;;4.30;2.95;;;3.30;38.50;;;;;;5093662;28;20582;-50
2021/12/23 01:22:04;;;;;;;7.13;4.30;;;3.20;38.40;;;;;;5078323;28;20607;-50
2021/12/23 01:24:33;;;;;;;5.43;2.08;;;3.30;38.50;;;;;;5093898;28;20163;-50
2021/12/23 01:27:02;;;;;;;5.57;2.92;;;3.30;38.40;;;;;;5077304;28;20181;-49
2021/12/23 01:29:29;;;;;;;2.92;2.22;;;3.30;38.50;;;;;;5093745;28;20162;-49
2021/12/23 01:31:57;;;;;;;10.10;5.70;;;3.30;38.30;;;;;;5094785;28;20227;-50
2021/12/23 01:34:24;;;;;;;3.13;2.05;;;3.30;38.40;;;;;;5094566;28;20164;-49
2021/12/23 01:36:52;;;;;;;3.67;3.15;;;3.30;38.30;;;;;;5094672;28;20170;-49
2021/12/23 01:39:20;;;;;;;7.97;3.65;;;3.30;38.30;;;;;;5094280;28;20598;-49
2021/12/23 01:41:47;;;;;;;1.63;1.42;;;3.30;38.30;;;;;;5093800;28;20167;-49
2021/12/23 01:44:14;;;;;;;4.35;3.03;;;3.40;38.30;;;;;;5094379;28;20154;-50
2021/12/23 01:46:42;;;;;;;3.88;2.72;;;3.30;38.20;;;;;;5093531;28;20187;-49
2021/12/23 01:49:09;;;;;;;7.20;4.05;;;3.30;38.40;;;;;;5094353;28;20167;-49
2021/12/23 01:51:37;;;;;;;6.45;3.80;;;3.30;38.20;;;;;;5093650;28;20202;-50
2021/12/23 01:54:05;;;;;;;4.90;3.63;;;3.30;38.30;;;;;;5094516;28;20548;-50
2021/12/23 01:56:32;;;;;;;11.77;4.80;;;3.30;38.20;;;;;;5077038;28;20259;-50
2021/12/23 01:58:59;;;;;;;6.90;4.15;;;3.30;38.20;;;;;;5093265;28;20198;-50
2021/12/23 02:01:27;;;;;;;9.20;6.18;;;3.30;38.20;;;;;;5093456;28;20666;-49
2021/12/23 02:03:54;;;;;;;6.35;3.63;;;3.30;38.20;;;;;;5096344;28;20158;-50
2021/12/23 02:06:21;;;;;;;6.80;4.45;;;3.30;38.20;;;;;;5098196;28;20170;-49
2021/12/23 02:08:49;;;;;;;10.68;4.72;;;3.40;38.20;;;;;;5097826;28;20148;-50
2021/12/23 02:11:16;;;;;;;5.25;3.03;;;3.40;38.20;;;;;;5096865;28;20180;-50
2021/12/23 02:13:44;;;;;;;8.88;3.58;;;3.40;38.00;;;;;;5096796;28;20171;-50
2021/12/23 02:16:11;;;;;;;7.43;4.63;;;3.40;38.10;;;;;;5096585;28;20217;-50
2021/12/23 02:18:39;;;;;;;4.07;3.63;;;3.30;38.20;;;;;;5097862;28;20201;-49
2021/12/23 02:21:07;;;;;;;9.95;5.97;;;3.40;38.10;;;;;;5097663;28;20160;-49
2021/12/23 02:23:35;;;;;;;9.88;4.03;;;3.40;38.10;;;;;;5096613;28;20600;-50
2021/12/23 02:26:02;;;;;;;9.35;3.03;;;3.40;38.10;;;;;;5097366;28;20168;-50
2021/12/23 02:28:30;;;;;;;6.18;4.07;;;3.40;38.10;;;;;;5097408;28;20160;-50
2021/12/23 02:30:57;;;;;;;7.63;2.53;;;3.40;37.90;;;;;;5097324;28;20242;-49
2021/12/23 02:33:27;;;;;;;3.47;2.20;;;3.40;38.10;;;;;;5097263;28;20159;-50
2021/12/23 02:35:56;;;;;;;5.20;3.60;;;3.50;38.10;;;;;;5097405;28;20163;-49
2021/12/23 02:38:24;;;;;;;6.05;2.65;;;3.50;38.10;;;;;;5096819;28;20222;-50
2021/12/23 02:40:52;;;;;;;5.15;3.80;;;3.50;38.00;;;;;;5096475;28;20254;-50
2021/12/23 02:43:26;;;;;;;8.82;4.13;;;3.50;37.90;;;;;;5096221;28;20239;-50
2021/12/23 02:45:56;;;;;;;8.52;5.32;;;3.50;38.00;;;;;;5096395;28;20574;-50
2021/12/23 02:48:34;;;;;;;7.40;3.53;;;3.50;38.00;;;;;;5096127;28;20159;-49
2021/12/23 02:51:06;;;;;;;2.35;2.15;;;3.50;37.90;;;;;;5097043;28;20238;-50
2021/12/23 02:53:33;;;;;;;6.57;2.92;;;3.50;37.90;;;;;;5097274;28;20174;-50
2021/12/23 02:56:04;;;;;;;6.82;3.72;;;3.50;38.00;;;;;;5096907;28;20174;-50
2021/12/23 02:58:32;;;;;;;3.70;2.15;;;3.50;37.80;;;;;;5095987;28;20164;-50
2021/12/23 03:01:02;;;;;;;7.07;2.85;;;3.50;37.60;;;;;;5096719;28;20175;-50
2021/12/23 03:03:30;;;;;;;6.47;2.90;;;3.50;37.70;;;;;;5079915;28;20155;-50
2021/12/23 03:05:58;;;;;;;4.57;4.05;;;3.50;37.70;;;;;;5096638;28;20162;-50
2021/12/23 03:08:31;;;;;;;10.35;5.38;;;3.60;37.70;;;;;;5096057;28;20586;-50
2021/12/23 03:10:59;;;;;;;5.85;2.75;;;3.60;37.70;;;;;;5096546;28;20163;-50
2021/12/23 03:13:27;;;;;;;5.88;3.65;;;3.60;37.60;;;;;;5096823;28;20231;-50
2021/12/23 03:15:54;;;;;;;10.30;4.55;;;3.60;37.70;;;;;;5096663;28;20172;-51
2021/12/23 03:18:22;;;;;;;3.78;2.55;;;3.50;37.70;;;;;;5095696;28;20167;-49
2021/12/23 03:20:50;;;;;;;2.05;1.88;;;3.50;37.70;;;;;;5096413;28;20164;-50
2021/12/23 03:23:17;;;;;;;6.47;4.20;;;3.50;37.70;;;;;;5096328;28;20171;-50
2021/12/23 03:25:45;;;;;;;3.97;1.48;;;3.60;37.50;;;;;;5078759;28;20201;-49
2021/12/23 03:28:12;;;;;;;7.70;3.85;;;3.60;37.50;;;;;;5096388;28;20182;-49
2021/12/23 03:30:40;;;;;;;2.13;1.50;;;3.60;37.50;;;;;;5095384;28;20167;-50
2021/12/23 03:33:07;;;;;;;3.60;3.00;;;3.50;37.60;;;;;;5095204;28;20163;-49
2021/12/23 03:35:35;;;;;;;10.35;3.85;;;3.50;37.50;;;;;;5095233;28;20552;-49
2021/12/23 03:38:03;;;;;;;5.35;3.00;;;3.50;37.50;;;;;;5078357;28;20245;-49
2021/12/23 03:40:31;;;;;;;14.23;6.65;;;3.50;37.50;;;;;;5078524;28;20285;-50
2021/12/23 03:42:58;;;;;;;5.40;3.33;;;3.50;37.30;;;;;;5095145;28;20170;-49
2021/12/23 03:45:26;;;;;;;8.90;5.28;;;3.50;37.60;;;;;;5096097;28;20163;-50
2021/12/23 03:47:53;;;;;;;5.05;2.75;;;3.50;37.40;;;;;;5094857;28;20209;-49
2021/12/23 03:50:23;;;;;;;6.55;3.25;;;3.50;37.60;;;;;;5094899;28;20195;-50
2021/12/23 03:52:51;;;;;;;7.55;3.40;;;3.50;37.60;;;;;;5095886;28;20619;-49
2021/12/23 03:55:19;;;;;;;5.00;2.88;;;3.50;37.20;;;;;;5096214;28;20245;-49
2021/12/23 03:57:46;;;;;;;15.98;3.30;;;3.50;37.30;;;;;;5095031;28;20584;-49
2021/12/23 04:00:17;;;;;;;12.18;3.10;;;3.50;37.50;;;;;;5094869;28;20190;-49
2021/12/23 04:02:46;;;;;;;5.68;3.10;;;3.50;37.60;;;;;;5094734;28;20601;-50
2021/12/23 04:05:15;;;;;;;11.75;3.92;;;3.50;37.30;;;;;;5095634;28;20175;-49
2021/12/23 04:07:43;;;;;;;5.95;5.00;;;3.50;37.30;;;;;;5095517;28;20163;-50
2021/12/23 04:10:14;;;;;;;3.00;2.38;;;3.50;37.30;;;;;;5095444;28;20180;-49
2021/12/23 04:12:41;;;;;;;4.15;1.88;;;3.50;37.30;;;;;;5078204;28;20163;-49
2021/12/23 04:15:10;;;;;;;7.35;4.50;;;3.50;37.50;;;;;;5094536;28;20182;-49
2021/12/23 04:17:38;;;;;;;4.75;2.60;;;3.50;37.60;;;;;;5095352;28;20250;-49
2021/12/23 04:20:21;;;;;;;3.80;2.60;;;3.50;37.40;;;;;;5095355;28;20203;-50
2021/12/23 04:22:51;;;;;;;9.93;3.13;;;3.60;37.40;;;;;;5094499;28;20167;-49
2021/12/23 04:25:20;;;;;;;10.70;5.45;;;3.60;37.20;;;;;;5093997;28;20170;-50
2021/12/23 04:27:50;;;;;;;14.27;5.53;;;3.60;37.00;;;;;;5095208;28;20202;-50
2021/12/23 04:30:18;;;;;;;7.63;2.95;;;3.50;37.00;;;;;;5095501;28;20249;-50
2021/12/23 04:32:45;;;;;;;6.20;4.25;;;3.50;37.30;;;;;;5095072;28;20163;-49
2021/12/23 04:35:13;;;;;;;7.65;3.65;;;3.50;37.30;;;;;;5077692;28;20245;-49
2021/12/23 04:37:41;;;;;;;12.63;2.50;;;3.50;37.20;;;;;;5094914;28;20180;-50
2021/12/23 04:40:10;;;;;;;4.63;3.38;;;3.50;37.30;;;;;;5094362;28;20221;-50
2021/12/23 04:42:37;;;;;;;5.30;4.15;;;3.40;37.20;;;;;;5095042;28;20189;-50
2021/12/23 04:45:06;;;;;;;5.30;3.15;;;3.40;37.30;;;;;;5094214;28;20576;-49
2021/12/23 04:47:33;;;;;;;10.73;2.50;;;3.40;37.20;;;;;;5094941;28;20197;-49
2021/12/23 04:50:01;;;;;;;5.80;3.72;;;3.40;37.20;;;;;;5095145;28;20162;-49
2021/12/23 04:52:28;;;;;;;14.40;5.32;;;3.40;37.20;;;;;;5094802;28;20530;-49
2021/12/23 04:54:55;;;;;;;2.63;2.05;;;3.40;37.20;;;;;;5094018;28;20652;-49
2021/12/23 04:57:23;;;;;;;14.38;6.05;;;3.40;37.50;;;;;;5094187;28;20511;-50
2021/12/23 04:59:50;;;;;;;6.63;4.28;;;3.40;37.30;;;;;;5094158;28;20222;-50
2021/12/23 05:02:54;;;;;;;4.43;2.88;;;3.50;37.40;;;;;;5094796;28;20592;-49
2021/12/23 05:05:21;;;;;;;12.63;4.05;;;3.50;37.30;;;;;;5092232;28;20259;-49
2021/12/23 05:07:49;;;;;;;9.75;2.58;;;3.40;37.20;;;;;;5094031;28;20217;-50
2021/12/23 05:10:20;;;;;;;7.18;4.72;;;3.40;37.40;;;;;;5077238;28;20177;-49
2021/12/23 05:12:48;;;;;;;9.65;5.50;;;3.40;37.20;;;;;;5094956;28;20611;-50
2021/12/23 05:15:20;;;;;;;8.18;3.28;;;3.40;37.10;;;;;;5094904;28;20468;-50
2021/12/23 05:17:48;;;;;;;8.35;3.92;;;3.40;37.20;;;;;;5093830;28;20214;-50
2021/12/23 05:20:19;;;;;;;4.55;3.08;;;3.30;37.40;;;;;;5094809;28;20194;-50
2021/12/23 05:22:47;;;;;;;9.70;4.25;;;3.30;37.40;;;;;;5094160;28;20162;-49
2021/12/23 05:25:14;;;;;;;5.10;3.42;;;3.40;37.40;;;;;;5094170;28;20158;-50
2021/12/23 05:27:43;;;;;;;3.95;2.80;;;3.40;37.20;;;;;;5093694;28;20169;-50
2021/12/23 05:30:14;;;;;;;2.75;2.20;;;3.40;36.80;;;;;;5093609;28;20533;-49
2021/12/23 05:32:42;;;;;;;10.48;5.65;;;3.40;37.10;;;;;;5094584;28;20174;-50
2021/12/23 05:35:10;;;;;;;6.68;3.92;;;3.30;37.30;;;;;;5077334;28;20239;-50
2021/12/23 05:37:39;;;;;;;9.05;5.97;;;3.30;37.30;;;;;;5095298;28;20254;-50
2021/12/23 05:40:10;;;;;;;5.45;3.00;;;3.30;37.40;;;;;;5098430;28;20523;-50
2021/12/23 05:42:37;;;;;;;7.72;3.78;;;3.40;37.30;;;;;;5098149;28;20198;-50
2021/12/23 05:45:05;;;;;;;8.13;3.95;;;3.40;37.10;;;;;;5080922;28;20162;-49
2021/12/23 05:47:33;;;;;;;4.05;2.63;;;3.50;37.40;;;;;;5098368;28;20620;-50
2021/12/23 05:50:00;;;;;;;4.80;2.80;;;3.40;37.20;;;;;;5097395;28;20493;-50
2021/12/23 05:52:28;;;;;;;6.22;4.00;;;3.40;37.30;;;;;;5098172;28;20175;-50
2021/12/23 05:54:57;;;;;;;8.23;4.05;;;3.40;37.20;;;;;;5098206;28;20219;-50
2021/12/23 05:57:25;;;;;;;7.40;4.93;;;3.30;37.50;;;;;;5097199;28;20491;-50
2021/12/23 05:59:52;;;;;;;7.75;4.38;;;3.30;37.40;;;;;;5097919;28;20199;-50
2021/12/23 06:02:20;;;;;;;5.55;4.20;;;3.30;37.50;;;;;;5098169;28;20516;-50
2021/12/23 06:04:47;;;;;;;8.10;6.93;;;3.30;37.40;;;;;;5097970;28;20154;-50
2021/12/23 06:07:15;;;;;;;7.03;3.90;;;3.30;37.60;;;;;;5097987;28;20167;-50
2021/12/23 06:09:43;;;;;;;8.05;3.05;;;3.30;37.60;;;;;;5097685;28;20228;-50
2021/12/23 06:12:11;;;;;;;9.80;4.43;;;3.20;37.50;;;;;;5096814;28;20171;-50
2021/12/23 06:14:38;;;;;;;7.90;4.93;;;3.30;37.70;;;;;;5097733;28;20190;-50
2021/12/23 06:17:06;;;;;;;4.28;3.10;;;3.40;37.40;;;;;;5097725;28;20603;-50
2021/12/23 06:19:34;;;;;;;15.98;4.88;;;3.30;37.40;;;;;;5097588;28;20186;-50
2021/12/23 06:22:02;;;;;;;4.20;2.25;;;3.30;37.70;;;;;;5097816;28;20176;-50
2021/12/23 06:24:29;;;;;;;4.80;3.63;;;3.30;37.80;;;;;;5096843;28;20162;-50
2021/12/23 06:26:56;;;;;;;6.20;2.22;;;3.30;37.70;;;;;;5096427;28;20174;-50
2021/12/23 06:29:24;;;;;;;5.40;4.85;;;3.30;37.70;;;;;;5097500;28;20190;-50
2021/12/23 06:31:51;;;;;;;6.57;4.68;;;3.30;37.50;;;;;;5097451;28;20235;-50
2021/12/23 06:34:19;;;;;;;4.65;2.33;;;3.30;37.50;;;;;;5097277;28;20176;-50
2021/12/23 06:36:47;;;;;;;8.90;4.00;;;3.40;37.40;;;;;;5097401;28;20501;-50
2021/12/23 06:39:14;;;;;;;14.35;3.97;;;3.40;37.40;;;;;;5095889;28;20272;-50
2021/12/23 06:41:42;;;;;;;7.70;5.22;;;3.30;37.50;;;;;;5096332;28;20264;-50
2021/12/23 06:44:09;;;;;;;8.60;3.60;;;3.30;37.40;;;;;;5097250;28;20242;-50
2021/12/23 06:46:37;;;;;;;18.83;5.07;;;3.20;37.70;;;;;;5097177;28;20618;-50
2021/12/23 06:49:04;;;;;;;9.63;3.08;;;3.20;37.50;;;;;;5096555;28;20197;-50
2021/12/23 06:51:31;;;;;;;3.55;2.90;;;3.20;37.60;;;;;;5096997;28;20205;-50
2021/12/23 06:54:01;;;;;;;7.70;4.13;;;3.20;37.60;;;;;;5096475;28;20266;-50
2021/12/23 06:56:29;;;;;;;10.65;3.45;;;3.20;37.50;;;;;;5063013;28;20534;-50
2021/12/23 06:58:56;;;;;;;12.65;3.85;;;3.20;37.40;;;;;;5096750;28;20219;-50
2021/12/23 07:01:23;;;;;;;7.50;3.97;;;3.20;37.50;;;;;;5096692;28;20196;-50
2021/12/23 07:06:23;;;;;;;6.10;4.05;;;3.10;38.00;;;;;;5096669;28;20551;-50
2021/12/23 07:08:53;;;;;;;5.78;4.13;;;3.10;37.80;;;;;;5079817;28;20243;-50
2021/12/23 07:11:21;;;;;;;9.07;5.60;;;3.10;37.90;;;;;;5096480;28;20191;-50
2021/12/23 07:13:49;;;;;;;7.63;3.50;;;3.00;37.90;;;;;;5096659;28;20205;-50
2021/12/23 07:16:17;;;;;;;15.82;4.65;;;3.00;37.80;;;;;;5095587;28;20654;-50
2021/12/23 07:18:45;;;;;;;3.55;2.78;;;3.00;37.80;;;;;;5096283;28;20181;-50
2021/12/23 07:21:12;;;;;;;13.18;4.28;;;3.10;38.00;;;;;;5096352;28;20170;-49
2021/12/23 07:23:39;;;;;;;12.73;3.67;;;3.10;38.00;;;;;;5096301;28;20181;-50
2021/12/23 07:26:07;;;;;;;5.68;3.20;;;3.10;37.50;;;;;;5095506;28;20486;-50
2021/12/23 07:28:34;;;;;;;6.32;3.08;;;3.20;37.60;;;;;;5096212;28;20160;-50
2021/12/23 07:31:02;;;;;;;7.07;2.90;;;3.20;37.50;;;;;;5095444;28;20167;-50
2021/12/23 07:33:29;;;;;;;4.70;3.22;;;3.20;37.40;;;;;;5095225;28;20158;-50
2021/12/23 07:35:57;;;;;;;10.45;3.38;;;3.10;37.60;;;;;;5096049;28;20166;-50
2021/12/23 07:38:24;;;;;;;5.70;3.88;;;3.10;37.70;;;;;;5095711;28;20298;-50
2021/12/23 07:40:51;;;;;;;8.57;5.03;;;3.10;37.40;;;;;;5095462;28;20201;-50
2021/12/23 07:43:42;;;;;;;8.02;2.92;;;3.20;37.50;;;;;;5095442;28;20193;-50
2021/12/23 07:46:09;;;;;;;4.22;3.75;;;3.20;37.70;;;;;;5094860;28;20175;-50
2021/12/23 07:48:36;;;;;;;7.85;4.28;;;3.30;37.40;;;;;;5095277;28;20164;-50
2021/12/23 07:51:05;;;;;;;2.67;2.47;;;3.30;37.70;;;;;;5095747;28;20162;-50
2021/12/23 07:53:33;;;;;;;8.90;5.63;;;3.30;36.90;;;;;;5078353;28;20159;-50
2021/12/23 07:56:00;;;;;;;5.60;3.25;;;3.40;36.90;;;;;;5095694;28;20174;-50
2021/12/23 07:58:27;;;;;;;6.15;3.65;;;3.30;36.80;;;;;;5094941;28;20169;-50
2021/12/23 08:00:54;;;;;;;11.27;3.97;;;3.30;36.90;;;;;;5093950;28;20179;-50
2021/12/23 08:03:22;;;;;;;7.45;3.42;;;3.20;37.00;;;;;;5094791;28;20608;-50
2021/12/23 08:05:52;;;;;;;7.35;3.90;;;3.10;36.80;;;;;;5095659;28;20170;-50
2021/12/23 08:08:20;;;;;;;5.85;3.63;;;3.10;37.10;;;;;;5094696;28;20170;-50
2021/12/23 08:10:50;;;;;;;7.07;4.50;;;3.20;37.20;;;;;;5094819;28;20171;-50
2021/12/23 08:13:18;;;;;;;5.85;3.33;;;3.20;37.10;;;;;;5094675;28;20178;-50
2021/12/23 08:15:45;;;;;;;6.20;3.92;;;3.20;37.00;;;;;;5095274;28;20164;-50
2021/12/23 08:18:13;;;;;;;6.10;3.55;;;3.20;37.00;;;;;;5095669;28;20190;-50
2021/12/23 08:20:40;;;;;;;6.00;4.10;;;3.20;37.00;;;;;;5095259;28;20531;-50
2021/12/23 08:23:08;;;;;;;8.65;3.05;;;3.30;36.90;;;;;;5094510;28;20245;-50
2021/12/23 08:25:35;;;;;;;7.90;4.65;;;3.40;36.90;;;;;;5095189;28;20173;-50
2021/12/23 08:28:03;;;;;;;7.22;4.05;;;3.40;36.90;;;;;;5095421;28;20228;-50
2021/12/23 08:30:32;;;;;;;8.15;5.82;;;3.60;36.90;;;;;;5095109;28;20182;-50
2021/12/23 08:32:59;;;;;;;10.77;4.80;;;3.30;36.70;;;;;;5094280;28;20667;-50
2021/12/23 08:35:27;;;;;;;13.07;5.35;;;3.30;37.40;;;;;;5095081;28;20202;-50
2021/12/23 08:37:54;;;;;;;15.18;5.00;;;3.40;36.70;;;;;;5094783;28;20246;-50
2021/12/23 08:40:24;;;;;;;16.60;5.28;;;3.40;36.60;;;;;;5094250;28;20259;-50
2021/12/23 08:42:52;;;;;;;6.25;2.78;;;3.40;36.40;;;;;;5077586;28;20168;-50
2021/12/23 08:45:21;;;;;;;11.15;6.65;;;3.40;36.60;;;;;;5094182;28;20179;-50
2021/12/23 08:47:48;;;;;;;4.82;3.47;;;3.50;36.40;;;;;;5095502;28;20245;-50
2021/12/23 08:50:17;;;;;;;9.40;3.60;;;3.50;36.40;;;;;;5094181;28;20262;-50
2021/12/23 08:52:45;;;;;;;7.68;3.47;;;3.50;36.40;;;;;;5077529;28;20161;-50
2021/12/23 08:55:14;;;;;;;9.52;5.20;;;3.50;36.30;;;;;;5095425;28;20233;-50
2021/12/23 08:57:43;;;;;;;3.15;1.73;;;3.50;36.30;;;;;;5095052;28;20487;-50
2021/12/23 09:00:14;;;;;;;5.30;4.90;;;3.50;36.20;;;;;;5077364;28;20233;-50
2021/12/23 09:02:42;;;;;;;6.43;3.78;;;3.60;36.20;;;;;;5094221;28;20592;-50
2021/12/23 09:05:10;;;;;;;5.25;3.35;;;3.60;36.40;;;;;;5094743;28;20166;-50
2021/12/23 09:07:37;;;;;;;6.95;3.88;;;3.60;36.50;;;;;;5094909;28;20158;-50
2021/12/23 09:10:07;;;;;;;6.20;3.30;;;3.60;36.30;;;;;;5094159;28;20171;-50
2021/12/23 09:12:34;;;;;;;5.95;3.50;;;3.60;36.00;;;;;;5096709;28;20254;-50
2021/12/23 09:15:01;;;;;;;9.85;4.40;;;3.60;36.20;;;;;;5098737;28;20189;-50
2021/12/23 09:17:29;;;;;;;10.50;4.40;;;3.60;36.20;;;;;;5097868;28;20165;-50
2021/12/23 09:19:57;;;;;;;6.75;2.50;;;3.60;36.30;;;;;;5097703;28;20207;-50
2021/12/23 09:22:24;;;;;;;8.93;5.65;;;3.60;36.10;;;;;;5098943;28;20619;-50
2021/12/23 09:24:56;;;;;;;5.80;3.25;;;3.70;36.20;;;;;;5081328;28;20171;-50
2021/12/23 09:27:40;;;;;;;7.25;3.30;;;3.70;35.90;;;;;;5081542;28;20240;-50
2021/12/23 09:32:56;;;;;;;3.30;2.42;;;3.70;36.00;;;;;;5098022;28;20230;-50
2021/12/23 09:35:28;;;;;;;7.80;4.30;;;3.70;36.80;;;;;;5096894;28;20180;-50
2021/12/23 09:37:56;;;;;;;7.20;3.78;;;3.70;36.20;;;;;;5096933;28;20662;-50
2021/12/23 09:40:24;;;;;;;13.30;5.22;;;3.60;36.20;;;;;;5098278;28;20647;-50
2021/12/23 09:42:54;;;;;;;16.50;6.30;;;3.70;36.00;;;;;;5098264;28;20604;-50
2021/12/23 09:45:22;;;;;;;2.75;2.15;;;3.70;36.00;;;;;;5097535;28;20179;-50
2021/12/23 09:47:50;;;;;;;5.07;2.60;;;3.70;36.20;;;;;;5098453;28;20164;-50
2021/12/23 09:50:20;;;;;;;11.63;5.68;;;3.70;36.50;;;;;;5097238;28;20631;-50
2021/12/23 09:52:51;;;;;;;8.68;3.25;;;3.70;36.20;;;;;;5097144;28;20550;-50
2021/12/23 09:55:24;;;;;;;6.63;4.20;;;3.80;36.30;;;;;;5097295;28;20176;-50
2021/12/23 09:57:53;;;;;;;6.95;4.38;;;3.70;36.10;;;;;;5098193;28;20601;-50
2021/12/23 10:00:24;;;;;;;10.40;3.65;;;3.70;36.10;;;;;;5098254;28;20297;-50
2021/12/23 10:02:52;;;;;;;15.52;4.20;;;3.70;36.10;;;;;;5098120;28;20179;-50
2021/12/23 10:05:23;;;;;;;3.85;2.88;;;3.80;36.20;;;;;;5098102;28;20193;-50
2021/12/23 10:07:51;;;;;;;6.78;4.35;;;3.70;36.40;;;;;;5080809;28;20604;-50
2021/12/23 10:10:25;;;;;;;3.40;3.03;;;3.80;36.10;;;;;;5097025;28;20172;-50
2021/12/23 10:26:51;;;;;;;6.43;4.93;;;3.80;35.90;;;;;;5097618;28;20167;-50
2021/12/23 10:38:16;;;;;;;5.07;3.42;;;3.90;36.40;;;;;;5082636;28;20231;-50
2021/12/23 10:40:50;;;;;;;3.78;2.92;;;4.00;35.70;;;;;;5096546;28;20497;-50
2021/12/23 10:43:34;;;;;;;7.10;3.78;;;4.00;35.70;;;;;;5096304;28;20148;-50
2021/12/23 10:46:11;;;;;;;9.73;4.05;;;4.00;36.00;;;;;;5096502;28;20198;-50
2021/12/23 10:49:00;;;;;;;5.28;3.78;;;4.00;35.80;;;;;;5096638;28;20243;-50
2021/12/23 10:51:45;;;;;;;6.70;4.43;;;4.00;35.90;;;;;;5096340;28;20658;-50
2021/12/23 11:00:19;;;;;;;8.32;4.13;;;4.20;35.40;;;;;;5096887;28;20194;-50
2021/12/23 11:03:24;;;;;;;13.88;5.18;;;4.20;35.90;;;;;;5096231;28;20266;-50
2021/12/23 11:06:07;;;;;;;4.90;2.35;;;4.20;35.40;;;;;;5096756;28;20221;-50
2021/12/23 11:09:07;;;;;;;5.65;2.97;;;4.30;35.80;;;;;;5096757;28;20206;-50
2021/12/23 11:27:24;;;;;;;10.50;3.97;;;4.30;35.40;;;;;;5096494;28;20170;-50
2021/12/23 11:42:27;;;;;;;4.97;4.38;;;4.40;35.10;;;;;;5095702;28;20219;-50
2021/12/23 11:44:56;;;;;;;5.78;3.83;;;4.30;35.10;;;;;;5094995;28;20174;-51
2021/12/23 11:47:24;;;;;;;4.93;2.80;;;4.20;34.70;;;;;;5095116;28;20164;-51
2021/12/23 11:49:52;;;;;;;7.82;4.47;;;4.20;35.00;;;;;;5095093;28;20666;-51
2021/12/23 11:52:20;;;;;;;9.90;6.30;;;4.10;35.30;;;;;;5095424;28;20164;-50
2021/12/23 11:54:48;;;;;;;13.45;6.07;;;4.20;35.00;;;;;;5095941;28;20164;-50
2021/12/23 11:57:25;;;;;;;8.05;3.22;;;4.20;34.80;;;;;;5095677;28;20168;-50
2021/12/23 12:00:31;;;;;;;13.38;4.22;;;4.30;35.30;;;;;;5094828;28;20269;-51
2021/12/23 12:03:02;;;;;;;12.18;4.55;;;4.40;34.90;;;;;;5095583;28;20191;-50
2021/12/23 12:05:32;;;;;;;13.73;6.28;;;4.40;34.90;;;;;;5078123;28;20159;-51
2021/12/23 12:08:15;;;;;;;6.43;3.78;;;4.40;34.60;;;;;;5094536;28;20174;-51
2021/12/23 12:10:45;;;;;;;3.65;3.00;;;4.30;34.90;;;;;;5094673;28;20175;-51
2021/12/23 12:13:18;;;;;;;10.55;4.18;;;4.30;35.00;;;;;;5095422;28;20185;-51
2021/12/23 12:15:50;;;;;;;9.65;7.55;;;4.30;35.20;;;;;;5094499;28;20586;-51
2021/12/23 12:18:22;;;;;;;8.85;3.63;;;4.30;35.30;;;;;;5095301;28;20163;-51
2021/12/23 12:20:59;;;;;;;7.32;6.07;;;4.30;35.20;;;;;;5094394;28;20586;-51
2021/12/23 12:23:33;;;;;;;5.90;5.05;;;4.40;35.30;;;;;;5094401;28;20148;-51
2021/12/23 12:26:12;;;;;;;6.32;4.00;;;4.30;35.40;;;;;;5095245;28;20152;-51
2021/12/23 12:28:47;;;;;;;5.90;4.55;;;4.20;35.40;;;;;;5095492;28;20535;-51
2021/12/23 12:31:19;;;;;;;12.20;4.72;;;4.20;35.40;;;;;;5094396;28;20191;-50
2021/12/23 12:33:54;;;;;;;10.75;4.28;;;4.20;35.10;;;;;;5077541;28;20171;-51
2021/12/23 12:36:23;;;;;;;6.82;5.32;;;4.20;35.70;;;;;;5094132;28;20171;-51
2021/12/23 12:38:57;;;;;;;5.78;3.22;;;4.20;35.80;;;;;;5077355;28;20211;-51
2021/12/23 12:41:35;;;;;;;3.75;3.10;;;4.30;35.90;;;;;;5061603;28;20496;-51
2021/12/23 12:44:12;;;;;;;4.60;4.10;;;4.30;35.80;;;;;;5061138;28;20162;-51
2021/12/23 12:46:43;;;;;;;4.43;3.30;;;4.30;35.60;;;;;;5093681;28;20182;-50
2021/12/23 12:49:38;;;;;;;3.10;2.38;;;4.40;35.40;;;;;;5094131;28;20314;-51
2021/12/23 12:52:19;;;;;;;5.60;3.50;;;4.30;35.30;;;;;;5094993;28;20171;-51
2021/12/23 12:54:51;;;;;;;13.98;5.25;;;4.30;35.80;;;;;;5078383;28;20235;-51
2021/12/23 12:57:20;;;;;;;9.13;5.78;;;4.30;35.60;;;;;;5094836;28;20160;-51
2021/12/23 12:59:50;;;;;;;8.70;5.75;;;4.30;35.50;;;;;;5077362;28;20190;-51
2021/12/23 13:02:27;;;;;;;9.40;4.38;;;4.30;35.80;;;;;;5094225;28;20171;-51
2021/12/23 13:05:07;;;;;;;10.25;5.10;;;4.20;35.40;;;;;;5095205;28;20164;-50
2021/12/23 13:07:39;;;;;;;6.45;3.90;;;4.20;35.50;;;;;;5093981;28;20155;-51
2021/12/23 13:10:14;;;;;;;9.50;6.03;;;4.30;35.60;;;;;;5094982;28;20168;-51
2021/12/23 13:12:50;;;;;;;9.50;5.43;;;4.40;35.60;;;;;;5095515;28;20552;-51
2021/12/23 13:15:31;;;;;;;9.63;3.92;;;4.40;35.40;;;;;;5094789;28;20560;-50
2021/12/23 13:18:09;;;;;;;6.80;4.18;;;4.30;35.40;;;;;;5093768;28;20585;-51
2021/12/23 13:20:48;;;;;;;8.50;4.50;;;4.30;35.80;;;;;;5077563;28;20640;-50
2021/12/23 13:23:23;;;;;;;9.45;5.07;;;4.30;35.60;;;;;;5093641;28;20548;-51
2021/12/23 13:25:56;;;;;;;7.35;4.45;;;4.30;35.90;;;;;;5094608;28;20217;-51
2021/12/23 13:28:35;;;;;;;4.55;3.10;;;4.30;35.70;;;;;;5094576;28;20152;-51
2021/12/23 13:31:16;;;;;;;7.95;4.32;;;4.30;35.70;;;;;;5094385;28;20167;-51
2021/12/23 13:33:56;;;;;;;7.55;3.38;;;4.30;35.80;;;;;;5093950;28;20528;-50
2021/12/23 13:36:28;;;;;;;7.78;5.88;;;4.30;35.60;;;;;;5093580;28;20156;-51
2021/12/23 13:39:03;;;;;;;8.40;4.18;;;4.30;35.60;;;;;;5093588;28;20302;-50
2021/12/23 13:41:35;;;;;;;9.48;5.63;;;4.30;35.70;;;;;;5093598;28;20155;-51
2021/12/23 13:44:28;;;;;;;6.40;5.38;;;4.30;36.10;;;;;;5093733;28;20554;-51
2021/12/23 13:47:15;;;;;;;10.85;6.88;;;4.30;36.00;;;;;;5095100;28;20191;-51
2021/12/23 13:49:46;;;;;;;8.48;6.18;;;4.40;35.70;;;;;;5094848;28;20480;-50
2021/12/23 13:52:47;;;;;;;8.85;5.53;;;4.30;35.90;;;;;;5094617;28;20164;-51
2021/12/23 13:55:23;;;;;;;7.45;5.72;;;4.30;36.20;;;;;;5079831;28;20205;-51
2021/12/23 13:57:55;;;;;;;13.82;6.32;;;4.30;35.90;;;;;;5094252;28;20151;-50
2021/12/23 14:00:29;;;;;;;15.95;5.90;;;4.40;36.10;;;;;;5080155;28;20192;-51
2021/12/23 14:03:18;;;;;;;10.32;5.45;;;4.40;35.90;;;;;;5097289;28;20563;-51
2021/12/23 14:05:49;;;;;;;26.23;6.25;;;4.50;35.90;;;;;;5097100;28;20527;-50
2021/12/23 14:08:17;;;;;;;11.43;8.05;;;4.50;36.00;;;;;;5080630;28;20174;-51
2021/12/23 14:10:46;;;;;;;6.70;4.57;;;4.40;35.80;;;;;;5097106;28;20175;-50
2021/12/23 14:13:18;;;;;;;8.30;5.32;;;4.40;36.20;;;;;;5096862;28;20172;-51
2021/12/23 14:15:48;;;;;;;15.35;5.05;;;4.30;36.10;;;;;;5096876;28;20469;-51
2021/12/23 14:19:21;;;;;;;11.15;4.78;;;4.40;36.30;;;;;;5096996;28;20549;-51
2021/12/23 14:24:08;;;;;;;12.82;7.70;;;4.40;36.10;;;;;;5097977;28;20213;-51
2021/12/23 14:26:36;;;;;;;12.30;5.25;;;4.40;36.70;;;;;;5096588;28;20171;-51